Flight Track Log - Related Links

Times and Time Zones

All times are in EDT time to prevent confusion due to time zone crossing. See the CFH24 flight status page for this flight to view local times or setup timezone preferences in your user account.

Time Position Orientation Groundspeed Altitude Reporting Facility
EDT Latitude Longitude Course Direction KTS MPH feet Rate Location/Type
Wed 02:35:30 AM -12.4230 130.9191 346° North 1,800  Level Aus ATC (Calculated)
Wed 02:36:10 AM -12.4156 130.9172 63° Northeast 156 180 1,800 600 Level Aus ATC (RADAR)
Wed 02:36:50 AM -12.4023 130.9437 64° Northeast 163 188 2,600 1,200 Climbing Aus ATC (RADAR)
Wed 02:37:35 AM -12.3861 130.9777 85° East 181 208 3,500 491 Climbing Aus ATC (RADAR)
Wed 02:38:40 AM -12.3810 131.0427 93° East 224 258 3,500 400 Level Aus ATC (RADAR)
Wed 02:39:35 AM -12.3839 131.1003 91° East 214 246 4,300 522 Climbing Aus ATC (RADAR)
Wed 02:40:35 AM -12.3850 131.1610 91° East 216 249 4,500 114 Climbing Aus ATC (RADAR)
Wed 02:41:20 AM -12.3859 131.2104 90° East 228 262 4,500 450 Level Aus ATC (RADAR)
Wed 02:41:55 AM -12.3860 131.2475 90° East 221 254 5,100 1,553 Climbing Aus ATC (RADAR)
Wed 02:42:45 AM -12.3862 131.2923 90° East 183 211 6,700 1,733 Climbing Aus ATC (RADAR)
Wed 02:43:25 AM -12.3864 131.3224 100° East 158 182 7,700 1,260 Climbing Aus ATC (RADAR)
Wed 02:44:25 AM -12.3941 131.3669 112° Southeast 157 181 8,800 1,137 Climbing Aus ATC (RADAR)
Wed 02:45:00 AM -12.4044 131.3923 111° Southeast 160 184 9,500 1,213 Climbing Aus ATC (RADAR)
Wed 02:45:54 AM -12.4203 131.4339 116° Southeast 164 189 10,600 1,152 Climbing Aus ATC (RADAR)
Wed 02:46:39 AM -12.4365 131.4675 117° Southeast 170 196 11,400 1,129 Climbing Aus ATC (RADAR)
Wed 02:47:19 AM -12.4510 131.4969 95° East 168 193 12,200 1,140 Climbing Aus ATC (RADAR)
Wed 02:48:19 AM -12.4548 131.5445 88° East 171 197 13,300 1,050 Climbing Aus ATC (RADAR)
Wed 02:49:59 AM -12.4513 131.6258 87° East 172 198 15,000 1,045 Climbing Aus ATC (RADAR)
Wed 02:50:54 AM -12.4491 131.6714 89° East 173 199 16,000 1,011 Climbing Aus ATC (RADAR)
Wed 02:51:34 AM -12.4485 131.7047 88° East 173 199 16,600 960 Climbing Aus ATC (RADAR)
Wed 02:52:09 AM -12.4477 131.7343 85° East 176 203 17,200 988 Climbing Aus ATC (RADAR)
Wed 02:52:59 AM -12.4444 131.7757 91° East 174 200 18,000 914 Climbing Aus ATC (RADAR)
Wed 02:53:54 AM -12.4449 131.8225 88° East 177 204 18,800 835 Climbing Aus ATC (RADAR)
Wed 02:54:54 AM -12.4434 131.8729 85° East 176 203 19,600 783 Climbing Aus ATC (RADAR)
Wed 02:55:49 AM -12.4395 131.9189 88° East 174 200 20,300 629 Climbing Aus ATC (RADAR)
Wed 02:56:39 AM -12.4384 131.9616 92° East 179 206 20,700 635 Climbing Aus ATC (RADAR)
Wed 02:57:14 AM -12.4394 131.9913 88° East 177 204 21,200 714 Climbing Aus ATC (RADAR)
Wed 02:58:03 AM -12.4376 132.0334 88° East 176 203 21,700 577 Climbing Aus ATC (RADAR)
Wed 02:58:58 AM -12.4361 132.0797 88° East 177 204 22,200 585 Climbing Aus ATC (RADAR)
Wed 03:00:06 AM -12.4342 132.1349 88° East 177 204 22,900 600 Climbing Aus ATC (RADAR)
Wed 03:00:58 AM -12.4323 132.1824 88° East 181 208 23,400 529 Climbing Aus ATC (RADAR)
Wed 03:01:48 AM -12.4306 132.2255 88° East 182 209 23,800 600 Climbing Aus ATC (RADAR)
Wed 03:02:18 AM -12.4296 132.2515 88° East 181 208 24,200 480 Climbing Aus ATC (RADAR)
Wed 03:03:53 AM -12.4270 132.3343 88° East 186 214 24,800 144 Climbing Aus ATC (RADAR)
Wed 03:06:28 AM -12.4207 132.4964 87° East 231 266 24,800  Level Aus ATC (RADAR)
Wed 03:08:42 AM -12.4139 132.6480 88° East 239 275 24,800  Level Aus ATC (RADAR)
Wed 03:11:03 AM -12.4090 132.8073 88° East 239 275 24,800  Level Aus ATC (RADAR)
Wed 03:13:47 AM -12.4015 132.9956 89° East 239 275 24,800  Level Aus ATC (RADAR)
Wed 03:15:22 AM -12.3988 133.1020 87° East 234 269 24,800  Level Aus ATC (RADAR)
Wed 03:17:12 AM -12.3930 133.2245 88° East 234 269 24,800  Level Aus ATC (RADAR)
Wed 03:18:31 AM -12.3893 133.3132 88° East 234 269 24,800  Level Aus ATC (RADAR)
Wed 03:19:56 AM -12.3857 133.4072 87° East 233 268 24,800  Level Aus ATC (RADAR)
Wed 03:20:36 AM -12.3837 133.4516 87° East 234 269 24,800  Level Aus ATC (RADAR)
Wed 03:21:41 AM -12.3805 133.5238 87° East 234 269 24,800  Level Aus ATC (RADAR)
Wed 03:22:16 AM -12.3788 133.5626 88° East 234 269 24,800  Level Aus ATC (RADAR)
Wed 03:23:56 AM -12.3752 133.6745 88° East 238 274 24,800 -450 Level Aus ATC (RADAR)
Wed 03:24:56 AM -12.3725 133.7478 87° East 265 305 23,600 -1,243 Descending Aus ATC (RADAR)
Wed 03:26:16 AM -12.3667 133.8560 88° East 289 333 21,900 -1,246 Descending Aus ATC (RADAR)
Wed 03:27:06 AM -12.3643 133.9223 86° East 281 323 20,900 -629 Descending Aus ATC (RADAR)
Wed 03:28:01 AM -12.3599 133.9892 88° East 254 292 20,800 -39 Descending Aus ATC (RADAR)
Wed 03:29:40 AM -12.3560 134.1000 89° East 230 265 20,800  Level Aus ATC (RADAR)
Wed 03:30:10 AM -12.3555 134.1325 88° East 229 264 20,800  Level Aus ATC (RADAR)
Wed 03:30:45 AM -12.3539 134.1705 86° East 229 264 20,800  Level Aus ATC (RADAR)
Wed 03:31:40 AM -12.3497 134.2299 90° East 230 265 20,800  Level Aus ATC (RADAR)
Wed 03:32:20 AM -12.3500 134.2740 87° East 232 267 20,800  Level Aus ATC (RADAR)
Wed 03:32:55 AM -12.3483 134.3121 86° East 231 266 20,800  Level Aus ATC (RADAR)
Wed 03:33:30 AM -12.3456 134.3503 89° East 230 265 20,800  Level Aus ATC (RADAR)
Wed 03:34:45 AM -12.3442 134.4335 97° East 236 272 20,800  Level Aus ATC (RADAR)
Wed 03:37:50 AM -12.3738 134.6906 97° East -6,746 Descending Aus ATC (Calculated)
Wed 03:38:50 AM -12.3818 134.7603 360° North  Level Aus ATC (Calculated)
Wed 03:38:50 AM -12.3818 134.7603 144° Southeast  Level Aus ATC (Calculated)
Wed 03:38:50 AM -12.3818 134.7603 97° East  Level Aus ATC (Calculated)
Wed 03:44:05 AM -12.4189 135.0869 85° East  Level Aus ATC (Calculated)
Wed 03:45:15 AM -12.4117 135.1766 84° East  Level Estimated
Wed 03:46:15 AM -12.2779 136.4681 89° East  Level FlightAware Approximate
Wed 03:47:15 AM -12.2771 136.5452 86° East  Level Estimated
Wed 03:48:15 AM -12.2719 136.6307 91° East  Level FlightAware Approximate
Wed 03:49:15 AM -12.2727 136.7078 85° East  Level Estimated
Wed 03:50:15 AM -12.2664 136.7786 100° East  Level FlightAware Approximate
Wed 03:51:15 AM -12.2789 136.8546 290° West  Level Estimated
Wed 03:52:15 AM -12.2650 136.8164 141° Southeast  Level FlightAware Approximate
Wed 03:53:15 AM -12.3232 136.8654 141° Southeast  Level Estimated

Login

Don't have an account? Register now (free) for customized features, flight alerts, and more!